sensor_id;sensor_type;location;lat;lon;timestamp;P1;durP1;ratioP1;P2;durP2;ratioP2
39094;SDS011;24840;47.508;19.376;2023-10-31T00:01:47;11.93;;;6.35;;
39094;SDS011;24840;47.508;19.376;2023-10-31T00:04:14;18.98;;;7.35;;
39094;SDS011;24840;47.508;19.376;2023-10-31T00:06:40;10.40;;;6.72;;
39094;SDS011;24840;47.508;19.376;2023-10-31T00:09:06;13.70;;;7.47;;
39094;SDS011;24840;47.508;19.376;2023-10-31T00:11:32;15.32;;;6.55;;
39094;SDS011;24840;47.508;19.376;2023-10-31T00:13:57;10.90;;;6.85;;
39094;SDS011;24840;47.508;19.376;2023-10-31T00:16:23;11.35;;;7.00;;
39094;SDS011;24840;47.508;19.376;2023-10-31T00:18:49;11.15;;;7.15;;
39094;SDS011;24840;47.508;19.376;2023-10-31T00:21:15;11.57;;;7.22;;
39094;SDS011;24840;47.508;19.376;2023-10-31T00:23:44;15.57;;;7.65;;
39094;SDS011;24840;47.508;19.376;2023-10-31T00:26:10;11.02;;;6.60;;
39094;SDS011;24840;47.508;19.376;2023-10-31T00:28:36;13.90;;;7.32;;
39094;SDS011;24840;47.508;19.376;2023-10-31T00:31:02;12.60;;;7.00;;
39094;SDS011;24840;47.508;19.376;2023-10-31T00:33:29;11.18;;;7.10;;
39094;SDS011;24840;47.508;19.376;2023-10-31T00:35:55;14.38;;;6.65;;
39094;SDS011;24840;47.508;19.376;2023-10-31T00:38:21;14.35;;;6.78;;
39094;SDS011;24840;47.508;19.376;2023-10-31T00:40:46;22.42;;;7.50;;
39094;SDS011;24840;47.508;19.376;2023-10-31T00:43:12;18.98;;;7.32;;
39094;SDS011;24840;47.508;19.376;2023-10-31T00:45:38;13.10;;;7.15;;
39094;SDS011;24840;47.508;19.376;2023-10-31T00:48:04;11.52;;;7.53;;
39094;SDS011;24840;47.508;19.376;2023-10-31T00:50:29;12.25;;;7.57;;
39094;SDS011;24840;47.508;19.376;2023-10-31T00:52:55;16.95;;;7.95;;
39094;SDS011;24840;47.508;19.376;2023-10-31T00:55:21;18.27;;;8.65;;
39094;SDS011;24840;47.508;19.376;2023-10-31T00:57:47;11.88;;;7.80;;
39094;SDS011;24840;47.508;19.376;2023-10-31T01:00:12;10.25;;;7.70;;
39094;SDS011;24840;47.508;19.376;2023-10-31T01:02:38;9.10;;;6.85;;
39094;SDS011;24840;47.508;19.376;2023-10-31T01:05:04;10.93;;;7.85;;
39094;SDS011;24840;47.508;19.376;2023-10-31T01:07:30;12.20;;;7.70;;
39094;SDS011;24840;47.508;19.376;2023-10-31T01:09:56;16.75;;;7.45;;
39094;SDS011;24840;47.508;19.376;2023-10-31T01:12:22;10.85;;;7.05;;
39094;SDS011;24840;47.508;19.376;2023-10-31T01:14:47;14.65;;;8.25;;
39094;SDS011;24840;47.508;19.376;2023-10-31T01:17:13;13.25;;;8.00;;
39094;SDS011;24840;47.508;19.376;2023-10-31T01:19:39;10.00;;;7.07;;
39094;SDS011;24840;47.508;19.376;2023-10-31T01:22:04;10.90;;;8.07;;
39094;SDS011;24840;47.508;19.376;2023-10-31T01:24:32;12.82;;;7.68;;
39094;SDS011;24840;47.508;19.376;2023-10-31T01:26:58;10.80;;;7.18;;
39094;SDS011;24840;47.508;19.376;2023-10-31T01:29:23;12.40;;;8.32;;
39094;SDS011;24840;47.508;19.376;2023-10-31T01:31:49;15.32;;;7.82;;
39094;SDS011;24840;47.508;19.376;2023-10-31T01:34:15;13.48;;;7.93;;
39094;SDS011;24840;47.508;19.376;2023-10-31T01:36:40;9.95;;;8.02;;
39094;SDS011;24840;47.508;19.376;2023-10-31T01:39:06;14.60;;;7.88;;
39094;SDS011;24840;47.508;19.376;2023-10-31T01:41:33;13.55;;;7.78;;
39094;SDS011;24840;47.508;19.376;2023-10-31T01:43:58;11.00;;;8.45;;
39094;SDS011;24840;47.508;19.376;2023-10-31T01:46:24;10.20;;;6.78;;
39094;SDS011;24840;47.508;19.376;2023-10-31T01:48:50;11.82;;;8.95;;
39094;SDS011;24840;47.508;19.376;2023-10-31T01:51:15;10.45;;;7.55;;
39094;SDS011;24840;47.508;19.376;2023-10-31T01:53:41;11.48;;;8.32;;
39094;SDS011;24840;47.508;19.376;2023-10-31T01:56:07;12.15;;;8.55;;
39094;SDS011;24840;47.508;19.376;2023-10-31T01:58:36;11.48;;;7.25;;
39094;SDS011;24840;47.508;19.376;2023-10-31T02:01:04;11.70;;;7.70;;
39094;SDS011;24840;47.508;19.376;2023-10-31T02:03:31;10.98;;;8.07;;
39094;SDS011;24840;47.508;19.376;2023-10-31T02:05:58;11.50;;;7.85;;
39094;SDS011;24840;47.508;19.376;2023-10-31T02:08:24;12.35;;;6.97;;
39094;SDS011;24840;47.508;19.376;2023-10-31T02:10:50;11.73;;;7.50;;
39094;SDS011;24840;47.508;19.376;2023-10-31T02:13:17;13.93;;;8.48;;
39094;SDS011;24840;47.508;19.376;2023-10-31T02:15:44;13.77;;;7.88;;
39094;SDS011;24840;47.508;19.376;2023-10-31T02:18:11;11.95;;;8.02;;
39094;SDS011;24840;47.508;19.376;2023-10-31T02:20:37;12.25;;;8.27;;
39094;SDS011;24840;47.508;19.376;2023-10-31T02:23:03;12.07;;;8.27;;
39094;SDS011;24840;47.508;19.376;2023-10-31T02:25:29;12.73;;;8.48;;
39094;SDS011;24840;47.508;19.376;2023-10-31T02:27:55;11.18;;;7.80;;
39094;SDS011;24840;47.508;19.376;2023-10-31T02:30:21;10.68;;;7.25;;
39094;SDS011;24840;47.508;19.376;2023-10-31T02:33:07;13.02;;;7.45;;
39094;SDS011;24840;47.508;19.376;2023-10-31T02:35:33;8.95;;;6.25;;
39094;SDS011;24840;47.508;19.376;2023-10-31T02:37:59;9.27;;;6.85;;
39094;SDS011;24840;47.508;19.376;2023-10-31T02:40:25;10.52;;;7.28;;
39094;SDS011;24840;47.508;19.376;2023-10-31T02:42:51;9.85;;;6.45;;
39094;SDS011;24840;47.508;19.376;2023-10-31T02:45:16;14.52;;;7.88;;
39094;SDS011;24840;47.508;19.376;2023-10-31T02:47:43;10.68;;;6.50;;
39094;SDS011;24840;47.508;19.376;2023-10-31T02:50:09;13.57;;;6.95;;
39094;SDS011;24840;47.508;19.376;2023-10-31T02:52:35;11.88;;;7.32;;
39094;SDS011;24840;47.508;19.376;2023-10-31T02:55:01;12.00;;;6.75;;
39094;SDS011;24840;47.508;19.376;2023-10-31T02:57:27;9.82;;;6.65;;
39094;SDS011;24840;47.508;19.376;2023-10-31T02:59:52;12.88;;;6.75;;
39094;SDS011;24840;47.508;19.376;2023-10-31T03:02:18;10.48;;;7.13;;
39094;SDS011;24840;47.508;19.376;2023-10-31T03:04:44;14.77;;;7.20;;
39094;SDS011;24840;47.508;19.376;2023-10-31T03:07:10;10.07;;;6.13;;
39094;SDS011;24840;47.508;19.376;2023-10-31T03:09:35;17.42;;;6.78;;
39094;SDS011;24840;47.508;19.376;2023-10-31T03:12:01;11.80;;;7.28;;
39094;SDS011;24840;47.508;19.376;2023-10-31T03:14:27;13.18;;;6.63;;
39094;SDS011;24840;47.508;19.376;2023-10-31T03:16:53;10.40;;;6.90;;
39094;SDS011;24840;47.508;19.376;2023-10-31T03:19:18;10.80;;;6.97;;
39094;SDS011;24840;47.508;19.376;2023-10-31T03:21:44;12.63;;;7.55;;
39094;SDS011;24840;47.508;19.376;2023-10-31T03:24:10;10.43;;;6.35;;
39094;SDS011;24840;47.508;19.376;2023-10-31T03:26:35;10.02;;;5.80;;
39094;SDS011;24840;47.508;19.376;2023-10-31T03:29:01;11.27;;;6.68;;
39094;SDS011;24840;47.508;19.376;2023-10-31T03:31:27;11.18;;;6.78;;
39094;SDS011;24840;47.508;19.376;2023-10-31T03:33:52;8.38;;;5.93;;
39094;SDS011;24840;47.508;19.376;2023-10-31T03:36:18;11.15;;;6.43;;
39094;SDS011;24840;47.508;19.376;2023-10-31T03:38:45;12.05;;;6.70;;
39094;SDS011;24840;47.508;19.376;2023-10-31T03:41:11;9.00;;;6.10;;
39094;SDS011;24840;47.508;19.376;2023-10-31T03:43:38;9.98;;;6.03;;
39094;SDS011;24840;47.508;19.376;2023-10-31T03:46:04;18.55;;;6.75;;
39094;SDS011;24840;47.508;19.376;2023-10-31T03:48:29;10.70;;;6.80;;
39094;SDS011;24840;47.508;19.376;2023-10-31T03:50:55;9.32;;;5.70;;
39094;SDS011;24840;47.508;19.376;2023-10-31T03:53:21;10.77;;;5.63;;
39094;SDS011;24840;47.508;19.376;2023-10-31T03:55:47;15.52;;;6.43;;
39094;SDS011;24840;47.508;19.376;2023-10-31T03:58:12;14.48;;;6.18;;
39094;SDS011;24840;47.508;19.376;2023-10-31T04:00:41;11.50;;;6.82;;
39094;SDS011;24840;47.508;19.376;2023-10-31T04:03:07;10.30;;;6.32;;
39094;SDS011;24840;47.508;19.376;2023-10-31T04:05:33;9.02;;;5.75;;
39094;SDS011;24840;47.508;19.376;2023-10-31T04:07:59;8.23;;;5.57;;
39094;SDS011;24840;47.508;19.376;2023-10-31T04:10:25;10.27;;;6.32;;
39094;SDS011;24840;47.508;19.376;2023-10-31T04:12:50;11.10;;;6.15;;
39094;SDS011;24840;47.508;19.376;2023-10-31T04:15:16;14.40;;;6.40;;
39094;SDS011;24840;47.508;19.376;2023-10-31T04:17:42;9.40;;;5.78;;
39094;SDS011;24840;47.508;19.376;2023-10-31T04:20:08;14.00;;;6.47;;
39094;SDS011;24840;47.508;19.376;2023-10-31T04:22:34;14.25;;;6.38;;
39094;SDS011;24840;47.508;19.376;2023-10-31T04:24:59;9.63;;;6.38;;
39094;SDS011;24840;47.508;19.376;2023-10-31T04:27:25;8.05;;;5.45;;
39094;SDS011;24840;47.508;19.376;2023-10-31T04:29:51;8.88;;;6.13;;
39094;SDS011;24840;47.508;19.376;2023-10-31T04:32:16;6.93;;;5.38;;
39094;SDS011;24840;47.508;19.376;2023-10-31T04:34:42;14.10;;;5.68;;
39094;SDS011;24840;47.508;19.376;2023-10-31T04:37:08;11.80;;;5.93;;
39094;SDS011;24840;47.508;19.376;2023-10-31T04:39:34;8.35;;;4.90;;
39094;SDS011;24840;47.508;19.376;2023-10-31T04:42:00;9.60;;;5.53;;
39094;SDS011;24840;47.508;19.376;2023-10-31T04:44:26;11.23;;;6.22;;
39094;SDS011;24840;47.508;19.376;2023-10-31T04:46:51;8.52;;;4.88;;
39094;SDS011;24840;47.508;19.376;2023-10-31T04:49:17;7.35;;;5.80;;
39094;SDS011;24840;47.508;19.376;2023-10-31T04:51:43;9.90;;;6.15;;
39094;SDS011;24840;47.508;19.376;2023-10-31T04:54:09;9.27;;;5.97;;
39094;SDS011;24840;47.508;19.376;2023-10-31T04:56:35;9.18;;;6.80;;
39094;SDS011;24840;47.508;19.376;2023-10-31T04:59:01;11.90;;;6.38;;
39094;SDS011;24840;47.508;19.376;2023-10-31T05:01:27;8.25;;;6.18;;
39094;SDS011;24840;47.508;19.376;2023-10-31T05:03:53;9.80;;;6.10;;
39094;SDS011;24840;47.508;19.376;2023-10-31T05:06:22;8.50;;;5.65;;
39094;SDS011;24840;47.508;19.376;2023-10-31T05:08:51;10.02;;;6.55;;
39094;SDS011;24840;47.508;19.376;2023-10-31T05:11:17;8.57;;;5.38;;
39094;SDS011;24840;47.508;19.376;2023-10-31T05:13:43;10.10;;;6.95;;
39094;SDS011;24840;47.508;19.376;2023-10-31T05:16:12;11.43;;;5.80;;
39094;SDS011;24840;47.508;19.376;2023-10-31T05:18:38;9.27;;;5.53;;
39094;SDS011;24840;47.508;19.376;2023-10-31T05:21:04;8.77;;;5.90;;
39094;SDS011;24840;47.508;19.376;2023-10-31T05:23:30;8.48;;;5.28;;
39094;SDS011;24840;47.508;19.376;2023-10-31T05:25:56;12.75;;;5.88;;
39094;SDS011;24840;47.508;19.376;2023-10-31T05:28:22;12.80;;;5.60;;
39094;SDS011;24840;47.508;19.376;2023-10-31T05:30:48;9.98;;;4.95;;
39094;SDS011;24840;47.508;19.376;2023-10-31T05:33:16;11.07;;;5.82;;
39094;SDS011;24840;47.508;19.376;2023-10-31T05:35:41;11.38;;;6.18;;
39094;SDS011;24840;47.508;19.376;2023-10-31T05:38:07;11.05;;;5.93;;
39094;SDS011;24840;47.508;19.376;2023-10-31T05:40:33;15.77;;;6.18;;
39094;SDS011;24840;47.508;19.376;2023-10-31T05:43:00;12.00;;;6.63;;
39094;SDS011;24840;47.508;19.376;2023-10-31T05:45:27;9.70;;;5.60;;
39094;SDS011;24840;47.508;19.376;2023-10-31T05:47:53;8.88;;;5.80;;
39094;SDS011;24840;47.508;19.376;2023-10-31T05:50:19;10.13;;;4.93;;
39094;SDS011;24840;47.508;19.376;2023-10-31T05:52:44;12.65;;;6.20;;
39094;SDS011;24840;47.508;19.376;2023-10-31T05:55:10;14.45;;;5.10;;
39094;SDS011;24840;47.508;19.376;2023-10-31T05:57:36;8.45;;;5.32;;
39094;SDS011;24840;47.508;19.376;2023-10-31T06:00:01;11.82;;;5.30;;
39094;SDS011;24840;47.508;19.376;2023-10-31T06:02:27;10.35;;;6.15;;
39094;SDS011;24840;47.508;19.376;2023-10-31T06:04:55;10.20;;;5.38;;
39094;SDS011;24840;47.508;19.376;2023-10-31T06:07:20;9.23;;;5.55;;
39094;SDS011;24840;47.508;19.376;2023-10-31T06:09:46;12.80;;;5.15;;
39094;SDS011;24840;47.508;19.376;2023-10-31T06:12:12;10.43;;;4.85;;
39094;SDS011;24840;47.508;19.376;2023-10-31T06:14:37;8.07;;;4.85;;
39094;SDS011;24840;47.508;19.376;2023-10-31T06:17:03;9.40;;;5.97;;
39094;SDS011;24840;47.508;19.376;2023-10-31T06:19:29;9.80;;;5.65;;
39094;SDS011;24840;47.508;19.376;2023-10-31T06:21:58;6.07;;;3.47;;
39094;SDS011;24840;47.508;19.376;2023-10-31T06:24:23;7.60;;;3.38;;
39094;SDS011;24840;47.508;19.376;2023-10-31T06:26:49;5.25;;;3.20;;
39094;SDS011;24840;47.508;19.376;2023-10-31T06:29:15;5.57;;;3.28;;
39094;SDS011;24840;47.508;19.376;2023-10-31T06:31:41;3.42;;;2.25;;
39094;SDS011;24840;47.508;19.376;2023-10-31T06:34:06;5.10;;;2.63;;
39094;SDS011;24840;47.508;19.376;2023-10-31T06:36:32;8.98;;;2.60;;
39094;SDS011;24840;47.508;19.376;2023-10-31T06:38:58;7.75;;;2.22;;
39094;SDS011;24840;47.508;19.376;2023-10-31T06:41:24;6.57;;;2.90;;
39094;SDS011;24840;47.508;19.376;2023-10-31T06:43:50;5.28;;;1.88;;
39094;SDS011;24840;47.508;19.376;2023-10-31T06:46:15;6.50;;;1.95;;
39094;SDS011;24840;47.508;19.376;2023-10-31T06:48:41;6.55;;;2.30;;
39094;SDS011;24840;47.508;19.376;2023-10-31T06:51:07;4.45;;;1.90;;
39094;SDS011;24840;47.508;19.376;2023-10-31T06:53:32;3.58;;;2.22;;
39094;SDS011;24840;47.508;19.376;2023-10-31T06:55:58;7.20;;;2.50;;
39094;SDS011;24840;47.508;19.376;2023-10-31T06:58:24;7.35;;;2.00;;
39094;SDS011;24840;47.508;19.376;2023-10-31T07:00:50;9.25;;;2.45;;
39094;SDS011;24840;47.508;19.376;2023-10-31T07:03:16;5.78;;;1.83;;
39094;SDS011;24840;47.508;19.376;2023-10-31T07:05:42;7.18;;;2.30;;
39094;SDS011;24840;47.508;19.376;2023-10-31T07:08:08;5.60;;;1.88;;
39094;SDS011;24840;47.508;19.376;2023-10-31T07:10:34;8.32;;;1.98;;
39094;SDS011;24840;47.508;19.376;2023-10-31T07:13:00;3.70;;;1.50;;
39094;SDS011;24840;47.508;19.376;2023-10-31T07:15:26;5.13;;;1.70;;
39094;SDS011;24840;47.508;19.376;2023-10-31T07:17:51;4.18;;;1.60;;
39094;SDS011;24840;47.508;19.376;2023-10-31T07:20:17;4.38;;;2.40;;
39094;SDS011;24840;47.508;19.376;2023-10-31T07:22:43;3.63;;;1.90;;
39094;SDS011;24840;47.508;19.376;2023-10-31T07:25:09;6.57;;;2.10;;
39094;SDS011;24840;47.508;19.376;2023-10-31T07:27:34;4.53;;;2.53;;
39094;SDS011;24840;47.508;19.376;2023-10-31T07:30:01;5.18;;;2.10;;
39094;SDS011;24840;47.508;19.376;2023-10-31T07:32:29;10.40;;;2.72;;
39094;SDS011;24840;47.508;19.376;2023-10-31T07:34:55;4.20;;;1.90;;
39094;SDS011;24840;47.508;19.376;2023-10-31T07:37:20;6.30;;;2.35;;
39094;SDS011;24840;47.508;19.376;2023-10-31T07:39:46;3.22;;;1.95;;
39094;SDS011;24840;47.508;19.376;2023-10-31T07:42:13;3.60;;;1.90;;
39094;SDS011;24840;47.508;19.376;2023-10-31T07:44:39;4.50;;;1.65;;
39094;SDS011;24840;47.508;19.376;2023-10-31T07:47:05;3.25;;;1.80;;
39094;SDS011;24840;47.508;19.376;2023-10-31T07:49:31;4.53;;;2.03;;
39094;SDS011;24840;47.508;19.376;2023-10-31T07:51:56;3.22;;;1.80;;
39094;SDS011;24840;47.508;19.376;2023-10-31T07:54:22;2.28;;;1.33;;
39094;SDS011;24840;47.508;19.376;2023-10-31T07:56:48;4.88;;;1.80;;
39094;SDS011;24840;47.508;19.376;2023-10-31T07:59:14;4.43;;;1.58;;
39094;SDS011;24840;47.508;19.376;2023-10-31T08:01:39;7.10;;;2.45;;
39094;SDS011;24840;47.508;19.376;2023-10-31T08:04:05;3.38;;;1.88;;
39094;SDS011;24840;47.508;19.376;2023-10-31T08:06:31;3.95;;;1.75;;
39094;SDS011;24840;47.508;19.376;2023-10-31T08:08:56;2.95;;;1.67;;
39094;SDS011;24840;47.508;19.376;2023-10-31T08:11:22;5.15;;;1.48;;
39094;SDS011;24840;47.508;19.376;2023-10-31T08:13:48;3.17;;;1.70;;
39094;SDS011;24840;47.508;19.376;2023-10-31T08:16:17;3.30;;;1.40;;
39094;SDS011;24840;47.508;19.376;2023-10-31T08:18:44;3.33;;;1.73;;
39094;SDS011;24840;47.508;19.376;2023-10-31T08:21:11;7.25;;;1.88;;
39094;SDS011;24840;47.508;19.376;2023-10-31T08:23:37;6.78;;;1.75;;
39094;SDS011;24840;47.508;19.376;2023-10-31T08:26:03;6.85;;;1.80;;
39094;SDS011;24840;47.508;19.376;2023-10-31T08:28:29;3.10;;;1.70;;
39094;SDS011;24840;47.508;19.376;2023-10-31T08:30:55;3.50;;;2.05;;
39094;SDS011;24840;47.508;19.376;2023-10-31T08:33:22;3.17;;;1.30;;
39094;SDS011;24840;47.508;19.376;2023-10-31T08:35:48;6.85;;;2.03;;
39094;SDS011;24840;47.508;19.376;2023-10-31T08:38:14;5.07;;;1.88;;
39094;SDS011;24840;47.508;19.376;2023-10-31T08:40:40;5.03;;;1.77;;
39094;SDS011;24840;47.508;19.376;2023-10-31T08:43:06;4.00;;;1.90;;
39094;SDS011;24840;47.508;19.376;2023-10-31T08:45:32;2.75;;;1.50;;
39094;SDS011;24840;47.508;19.376;2023-10-31T08:47:59;3.80;;;1.58;;
39094;SDS011;24840;47.508;19.376;2023-10-31T08:50:25;6.07;;;1.67;;
39094;SDS011;24840;47.508;19.376;2023-10-31T08:52:51;3.55;;;1.55;;
39094;SDS011;24840;47.508;19.376;2023-10-31T08:55:17;3.05;;;1.52;;
39094;SDS011;24840;47.508;19.376;2023-10-31T08:57:43;10.73;;;2.13;;
39094;SDS011;24840;47.508;19.376;2023-10-31T09:00:09;4.93;;;1.70;;
39094;SDS011;24840;47.508;19.376;2023-10-31T09:02:34;4.25;;;1.80;;
39094;SDS011;24840;47.508;19.376;2023-10-31T09:05:00;4.97;;;1.83;;
39094;SDS011;24840;47.508;19.376;2023-10-31T09:07:26;3.85;;;1.77;;
39094;SDS011;24840;47.508;19.376;2023-10-31T09:09:52;5.10;;;1.65;;
39094;SDS011;24840;47.508;19.376;2023-10-31T09:12:18;4.32;;;2.15;;
39094;SDS011;24840;47.508;19.376;2023-10-31T09:14:44;3.92;;;1.38;;
39094;SDS011;24840;47.508;19.376;2023-10-31T09:17:10;5.28;;;2.08;;
39094;SDS011;24840;47.508;19.376;2023-10-31T09:19:36;5.00;;;1.73;;
39094;SDS011;24840;47.508;19.376;2023-10-31T09:22:02;4.65;;;1.58;;
39094;SDS011;24840;47.508;19.376;2023-10-31T09:24:27;7.18;;;2.03;;
39094;SDS011;24840;47.508;19.376;2023-10-31T09:26:53;3.00;;;1.80;;
39094;SDS011;24840;47.508;19.376;2023-10-31T09:29:19;5.93;;;1.92;;
39094;SDS011;24840;47.508;19.376;2023-10-31T09:31:44;4.28;;;2.22;;
39094;SDS011;24840;47.508;19.376;2023-10-31T09:34:10;4.22;;;1.15;;
39094;SDS011;24840;47.508;19.376;2023-10-31T09:36:36;2.90;;;1.40;;
39094;SDS011;24840;47.508;19.376;2023-10-31T09:39:02;2.08;;;1.45;;
39094;SDS011;24840;47.508;19.376;2023-10-31T09:41:28;6.78;;;1.65;;
39094;SDS011;24840;47.508;19.376;2023-10-31T09:43:55;5.60;;;1.60;;
39094;SDS011;24840;47.508;19.376;2023-10-31T09:46:21;4.10;;;1.60;;
39094;SDS011;24840;47.508;19.376;2023-10-31T09:48:47;3.83;;;1.73;;
39094;SDS011;24840;47.508;19.376;2023-10-31T09:51:14;5.97;;;2.38;;
39094;SDS011;24840;47.508;19.376;2023-10-31T09:53:40;4.43;;;1.52;;
39094;SDS011;24840;47.508;19.376;2023-10-31T09:56:09;4.88;;;1.83;;
39094;SDS011;24840;47.508;19.376;2023-10-31T09:58:35;3.88;;;1.40;;
39094;SDS011;24840;47.508;19.376;2023-10-31T10:01:01;2.28;;;1.10;;
39094;SDS011;24840;47.508;19.376;2023-10-31T10:03:28;10.32;;;1.50;;
39094;SDS011;24840;47.508;19.376;2023-10-31T10:05:54;6.28;;;1.90;;
39094;SDS011;24840;47.508;19.376;2023-10-31T10:08:20;6.93;;;2.47;;
39094;SDS011;24840;47.508;19.376;2023-10-31T10:10:47;2.72;;;1.48;;
39094;SDS011;24840;47.508;19.376;2023-10-31T10:13:17;4.20;;;1.33;;
39094;SDS011;24840;47.508;19.376;2023-10-31T10:15:44;3.20;;;1.45;;
39094;SDS011;24840;47.508;19.376;2023-10-31T10:18:10;3.05;;;1.23;;
39094;SDS011;24840;47.508;19.376;2023-10-31T10:20:56;3.13;;;1.13;;
39094;SDS011;24840;47.508;19.376;2023-10-31T10:23:26;2.22;;;1.38;;
39094;SDS011;24840;47.508;19.376;2023-10-31T10:25:53;7.70;;;1.52;;
39094;SDS011;24840;47.508;19.376;2023-10-31T10:28:21;3.28;;;1.50;;
39094;SDS011;24840;47.508;19.376;2023-10-31T10:30:47;1.65;;;0.95;;
39094;SDS011;24840;47.508;19.376;2023-10-31T10:33:14;4.72;;;1.48;;
39094;SDS011;24840;47.508;19.376;2023-10-31T10:35:41;2.55;;;1.15;;
39094;SDS011;24840;47.508;19.376;2023-10-31T10:38:09;2.78;;;1.30;;
39094;SDS011;24840;47.508;19.376;2023-10-31T10:40:39;5.10;;;1.00;;
39094;SDS011;24840;47.508;19.376;2023-10-31T10:43:12;3.22;;;1.08;;
39094;SDS011;24840;47.508;19.376;2023-10-31T10:45:43;4.97;;;1.63;;
39094;SDS011;24840;47.508;19.376;2023-10-31T10:48:13;5.97;;;1.25;;
39094;SDS011;24840;47.508;19.376;2023-10-31T10:50:41;6.67;;;2.07;;
39094;SDS011;24840;47.508;19.376;2023-10-31T10:55:51;2.42;;;1.00;;
39094;SDS011;24840;47.508;19.376;2023-10-31T11:01:18;4.43;;;1.40;;
39094;SDS011;24840;47.508;19.376;2023-10-31T11:03:45;7.75;;;1.42;;
39094;SDS011;24840;47.508;19.376;2023-10-31T11:06:11;2.92;;;1.50;;
39094;SDS011;24840;47.508;19.376;2023-10-31T11:08:38;7.95;;;1.25;;
39094;SDS011;24840;47.508;19.376;2023-10-31T11:11:05;3.25;;;0.95;;
39094;SDS011;24840;47.508;19.376;2023-10-31T11:13:31;2.90;;;1.20;;
39094;SDS011;24840;47.508;19.376;2023-10-31T11:15:59;2.58;;;0.93;;
39094;SDS011;24840;47.508;19.376;2023-10-31T11:18:34;5.43;;;1.58;;
39094;SDS011;24840;47.508;19.376;2023-10-31T11:21:00;5.43;;;1.60;;
39094;SDS011;24840;47.508;19.376;2023-10-31T11:23:27;3.55;;;1.40;;
39094;SDS011;24840;47.508;19.376;2023-10-31T11:25:53;2.92;;;1.10;;
39094;SDS011;24840;47.508;19.376;2023-10-31T11:28:20;5.55;;;1.33;;
39094;SDS011;24840;47.508;19.376;2023-10-31T11:30:49;3.63;;;1.45;;
39094;SDS011;24840;47.508;19.376;2023-10-31T11:33:18;4.30;;;1.17;;
39094;SDS011;24840;47.508;19.376;2023-10-31T11:36:04;8.75;;;1.35;;
39094;SDS011;24840;47.508;19.376;2023-10-31T11:38:31;3.95;;;1.73;;
39094;SDS011;24840;47.508;19.376;2023-10-31T11:41:00;4.55;;;1.60;;
39094;SDS011;24840;47.508;19.376;2023-10-31T11:43:49;4.63;;;1.17;;
39094;SDS011;24840;47.508;19.376;2023-10-31T11:46:18;5.00;;;1.27;;
39094;SDS011;24840;47.508;19.376;2023-10-31T11:51:16;5.22;;;2.28;;
39094;SDS011;24840;47.508;19.376;2023-10-31T11:53:43;3.28;;;1.40;;
39094;SDS011;24840;47.508;19.376;2023-10-31T11:56:10;6.63;;;1.60;;
39094;SDS011;24840;47.508;19.376;2023-10-31T11:58:36;4.55;;;1.15;;
39094;SDS011;24840;47.508;19.376;2023-10-31T12:01:05;3.80;;;1.52;;
39094;SDS011;24840;47.508;19.376;2023-10-31T12:03:42;3.28;;;1.60;;
39094;SDS011;24840;47.508;19.376;2023-10-31T12:06:13;4.70;;;1.42;;
39094;SDS011;24840;47.508;19.376;2023-10-31T12:08:40;5.95;;;1.50;;
39094;SDS011;24840;47.508;19.376;2023-10-31T12:11:11;4.57;;;1.10;;
39094;SDS011;24840;47.508;19.376;2023-10-31T12:13:39;5.32;;;1.67;;
39094;SDS011;24840;47.508;19.376;2023-10-31T12:16:07;6.63;;;1.73;;
39094;SDS011;24840;47.508;19.376;2023-10-31T12:18:34;3.42;;;1.55;;
39094;SDS011;24840;47.508;19.376;2023-10-31T12:21:01;4.28;;;1.48;;
39094;SDS011;24840;47.508;19.376;2023-10-31T12:23:28;3.80;;;1.30;;
39094;SDS011;24840;47.508;19.376;2023-10-31T12:25:54;3.83;;;1.33;;
39094;SDS011;24840;47.508;19.376;2023-10-31T12:28:20;6.05;;;1.98;;
39094;SDS011;24840;47.508;19.376;2023-10-31T12:30:47;5.43;;;1.27;;
39094;SDS011;24840;47.508;19.376;2023-10-31T12:33:14;2.80;;;1.33;;
39094;SDS011;24840;47.508;19.376;2023-10-31T12:35:40;3.60;;;1.40;;
39094;SDS011;24840;47.508;19.376;2023-10-31T12:38:09;4.57;;;1.42;;
39094;SDS011;24840;47.508;19.376;2023-10-31T12:40:36;3.65;;;1.40;;
39094;SDS011;24840;47.508;19.376;2023-10-31T12:43:02;4.72;;;1.30;;
39094;SDS011;24840;47.508;19.376;2023-10-31T12:45:28;8.55;;;4.22;;
39094;SDS011;24840;47.508;19.376;2023-10-31T12:48:01;14.65;;;3.53;;
39094;SDS011;24840;47.508;19.376;2023-10-31T12:50:35;9.35;;;3.42;;
39094;SDS011;24840;47.508;19.376;2023-10-31T12:53:05;11.10;;;3.85;;
39094;SDS011;24840;47.508;19.376;2023-10-31T12:55:37;16.17;;;4.40;;
39094;SDS011;24840;47.508;19.376;2023-10-31T12:58:07;10.95;;;5.03;;
39094;SDS011;24840;47.508;19.376;2023-10-31T13:00:35;13.18;;;5.22;;
39094;SDS011;24840;47.508;19.376;2023-10-31T13:03:02;9.75;;;5.22;;
39094;SDS011;24840;47.508;19.376;2023-10-31T13:05:30;9.48;;;5.05;;
39094;SDS011;24840;47.508;19.376;2023-10-31T13:07:57;8.13;;;4.40;;
39094;SDS011;24840;47.508;19.376;2023-10-31T13:10:25;8.75;;;4.90;;
39094;SDS011;24840;47.508;19.376;2023-10-31T13:12:52;12.52;;;5.05;;
39094;SDS011;24840;47.508;19.376;2023-10-31T13:15:20;8.15;;;4.38;;
39094;SDS011;24840;47.508;19.376;2023-10-31T13:20:17;5.07;;;3.70;;
39094;SDS011;24840;47.508;19.376;2023-10-31T13:22:44;9.95;;;4.50;;
39094;SDS011;24840;47.508;19.376;2023-10-31T13:25:12;6.22;;;3.60;;
39094;SDS011;24840;47.508;19.376;2023-10-31T13:27:40;8.68;;;4.40;;
39094;SDS011;24840;47.508;19.376;2023-10-31T13:30:08;7.70;;;3.78;;
39094;SDS011;24840;47.508;19.376;2023-10-31T13:32:36;10.57;;;3.78;;
39094;SDS011;24840;47.508;19.376;2023-10-31T13:35:02;8.02;;;4.05;;
39094;SDS011;24840;47.508;19.376;2023-10-31T13:37:28;7.78;;;4.40;;
39094;SDS011;24840;47.508;19.376;2023-10-31T13:39:54;8.27;;;3.47;;
39094;SDS011;24840;47.508;19.376;2023-10-31T13:42:20;8.45;;;3.95;;
39094;SDS011;24840;47.508;19.376;2023-10-31T13:44:46;10.43;;;4.25;;
39094;SDS011;24840;47.508;19.376;2023-10-31T13:47:13;9.43;;;4.00;;
39094;SDS011;24840;47.508;19.376;2023-10-31T13:49:39;9.02;;;4.40;;
39094;SDS011;24840;47.508;19.376;2023-10-31T13:52:04;8.27;;;3.88;;
39094;SDS011;24840;47.508;19.376;2023-10-31T13:54:31;9.63;;;4.35;;
39094;SDS011;24840;47.508;19.376;2023-10-31T13:56:57;12.48;;;4.93;;
39094;SDS011;24840;47.508;19.376;2023-10-31T13:59:24;8.48;;;5.03;;
39094;SDS011;24840;47.508;19.376;2023-10-31T14:01:50;10.15;;;5.35;;
39094;SDS011;24840;47.508;19.376;2023-10-31T14:04:16;8.90;;;4.85;;
39094;SDS011;24840;47.508;19.376;2023-10-31T14:06:42;8.43;;;4.20;;
39094;SDS011;24840;47.508;19.376;2023-10-31T14:09:09;11.48;;;4.95;;
39094;SDS011;24840;47.508;19.376;2023-10-31T14:11:37;6.85;;;4.07;;
39094;SDS011;24840;47.508;19.376;2023-10-31T14:14:04;9.15;;;4.88;;
39094;SDS011;24840;47.508;19.376;2023-10-31T14:16:41;11.77;;;5.20;;
39094;SDS011;24840;47.508;19.376;2023-10-31T14:19:10;30.83;;;5.65;;
39094;SDS011;24840;47.508;19.376;2023-10-31T14:21:36;8.50;;;4.22;;
39094;SDS011;24840;47.508;19.376;2023-10-31T14:24:02;8.88;;;3.97;;
39094;SDS011;24840;47.508;19.376;2023-10-31T14:26:29;10.48;;;4.65;;
39094;SDS011;24840;47.508;19.376;2023-10-31T14:28:55;4.18;;;3.22;;
39094;SDS011;24840;47.508;19.376;2023-10-31T14:31:21;7.93;;;5.15;;
39094;SDS011;24840;47.508;19.376;2023-10-31T14:33:47;8.40;;;4.65;;
39094;SDS011;24840;47.508;19.376;2023-10-31T14:36:13;7.05;;;3.88;;